Time;durP1;ratioP1;P1;durP2;ratioP2;P2;SDS_P1;SDS_P2;PMS_P1;PMS_P2;Temp;Humidity;BMP_temperature;BMP_pressure;BME280_temperature;BME280_humidity;BME280_pressure;Samples;Min_cycle;Max_cycle;Signal;HPM_P1;HPM_P2
2022/06/15 00:02:09;;;;;;;5.05;1.95;;;;;;;13.76;66.73;100396.31;4413394;32;33757;-89
2022/06/15 00:04:38;;;;;;;3.90;1.90;;;;;;;13.82;65.59;100393.97;4400718;32;34362;-88
2022/06/15 00:07:07;;;;;;;5.87;2.00;;;;;;;13.80;66.12;100394.72;4392406;32;33497;-88
2022/06/15 00:09:35;;;;;;;3.20;1.90;;;;;;;13.76;66.06;100405.00;4398384;32;33510;-88
2022/06/15 00:12:04;;;;;;;4.12;1.92;;;;;;;13.90;66.01;100395.16;4394309;32;33525;-88
2022/06/15 00:14:32;;;;;;;3.60;2.10;;;;;;;13.91;66.13;100394.34;4404016;32;32768;-88
2022/06/15 00:17:01;;;;;;;4.62;2.10;;;;;;;13.49;68.00;100399.53;4388606;32;34200;-87
2022/06/15 00:19:29;;;;;;;4.30;2.10;;;;;;;13.42;68.65;100405.28;4391036;32;32641;-87
2022/06/15 00:21:56;;;;;;;6.78;2.15;;;;;;;13.26;68.91;100400.22;4403004;32;33409;-88
2022/06/15 00:24:24;;;;;;;4.25;2.35;;;;;;;13.20;69.23;100394.78;4407976;32;34588;-88
2022/06/15 00:26:51;;;;;;;2.83;1.80;;;;;;;13.23;69.44;100397.47;4385325;32;33282;-87
2022/06/15 00:29:19;;;;;;;4.93;2.25;;;;;;;13.16;69.06;100399.81;4410498;32;33623;-88
2022/06/15 00:31:46;;;;;;;3.50;2.00;;;;;;;13.08;69.47;100396.00;4383451;32;33190;-88
2022/06/15 00:34:16;;;;;;;5.32;2.00;;;;;;;13.08;69.16;100390.81;4402753;32;32742;-88
2022/06/15 00:36:43;;;;;;;2.70;1.85;;;;;;;13.23;68.58;100395.78;4390867;32;33912;-89
2022/06/15 00:39:11;;;;;;;3.50;1.95;;;;;;;13.49;67.70;100396.94;4399532;32;32977;-88
2022/06/15 00:41:43;;;;;;;4.70;2.08;;;;;;;13.02;69.00;100395.72;4392782;32;31896;-88
2022/06/15 00:44:16;;;;;;;5.82;2.65;;;;;;;13.00;69.35;100392.19;4381655;32;33931;-88
2022/06/15 00:46:46;;;;;;;4.70;2.35;;;;;;;12.99;69.31;100393.00;4403428;32;32773;-87
2022/06/15 00:49:24;;;;;;;4.12;1.95;;;;;;;12.79;70.18;100387.78;4400479;32;32165;-87
2022/06/15 00:51:55;;;;;;;6.37;2.72;;;;;;;12.94;68.76;100397.09;4400690;32;34325;-88
2022/06/15 00:54:24;;;;;;;4.03;1.80;;;;;;;13.15;68.23;100390.25;4395728;32;32634;-88
2022/06/15 00:56:53;;;;;;;3.28;1.60;;;;;;;13.24;66.77;100392.34;4398879;32;33647;-87
2022/06/15 00:59:29;;;;;;;3.65;1.62;;;;;;;13.08;66.80;100390.81;4401670;32;32296;-88
2022/06/15 01:01:58;;;;;;;3.28;2.00;;;;;;;12.64;68.68;100396.59;4399205;32;34355;-88
2022/06/15 01:04:32;;;;;;;3.92;1.92;;;;;;;12.97;68.31;100402.44;4394732;32;33467;-88
2022/06/15 01:07:25;;;;;;;6.03;2.03;;;;;;;12.64;69.58;100405.28;4368996;32;32768;-88
2022/06/15 01:10:28;;;;;;;3.42;2.00;;;;;;;12.54;70.18;100409.16;4405308;32;33339;-88
2022/06/15 01:13:05;;;;;;;3.92;2.00;;;;;;;12.31;72.13;100392.50;4383212;32;32367;-89
2022/06/15 01:15:38;;;;;;;4.47;1.98;;;;;;;13.99;66.17;100396.37;4407625;32;32810;-88
2022/06/15 01:18:23;;;;;;;3.55;1.67;;;;;;;14.40;64.19;100404.94;4409167;32;33807;-88
2022/06/15 01:20:56;;;;;;;3.97;1.70;;;;;;;14.62;63.61;100412.81;4410812;32;33300;-88
2022/06/15 01:23:53;;;;;;;6.78;2.10;;;;;;;14.68;61.78;100415.63;4402209;32;33444;-88
2022/06/15 01:26:29;;;;;;;4.78;2.15;;;;;;;13.79;65.59;100413.78;4385012;32;33742;-87
2022/06/15 01:29:06;;;;;;;5.05;1.90;;;;;;;13.67;66.55;100424.56;4396175;32;34069;-88
2022/06/15 01:31:58;;;;;;;3.40;1.83;;;;;;;13.61;66.66;100409.56;4416559;32;34243;-87
2022/06/15 01:34:43;;;;;;;5.35;1.92;;;;;;;14.31;64.08;100421.09;4389806;32;33972;-88
2022/06/15 01:37:20;;;;;;;3.87;1.90;;;;;;;14.97;62.18;100426.28;4411338;32;33309;-89
2022/06/15 01:39:52;;;;;;;5.87;1.85;;;;;;;15.19;60.74;100424.44;4409643;32;34844;-88
2022/06/15 01:42:26;;;;;;;3.10;1.67;;;;;;;13.31;66.41;100419.56;4415469;32;33560;-87
2022/06/15 01:44:58;;;;;;;4.43;2.05;;;;;;;14.24;64.40;100419.97;4395883;32;32616;-87
2022/06/15 01:47:27;;;;;;;4.78;1.80;;;;;;;12.90;68.43;100423.78;4396978;32;33884;-87
2022/06/15 01:49:59;;;;;;;3.70;2.00;;;;;;;12.30;69.60;100416.69;4393698;32;33545;-88
2022/06/15 01:52:33;;;;;;;4.68;2.15;;;;;;;13.67;65.89;100419.34;4411289;32;33269;-87
2022/06/15 01:55:22;;;;;;;2.65;1.80;;;;;;;12.96;68.69;100421.44;4394399;32;32615;-87
2022/06/15 01:57:53;;;;;;;3.85;2.20;;;;;;;12.24;71.18;100416.41;4402619;32;34713;-88
2022/06/15 02:00:21;;;;;;;4.28;2.37;;;;;;;11.90;72.74;100427.75;4399868;32;33866;-88
2022/06/15 02:03:08;;;;;;;4.32;2.25;;;;;;;11.86;72.72;100425.78;4394706;32;32984;-88
2022/06/15 02:05:47;;;;;;;6.28;2.72;;;;;;;11.79;73.23;100421.09;4413550;32;34291;-88
2022/06/15 02:08:38;;;;;;;5.55;2.10;;;;;;;12.06;71.92;100420.72;4398727;32;33496;-88
2022/06/15 02:11:14;;;;;;;5.00;2.12;;;;;;;12.37;70.27;100418.75;4397940;32;34844;-87
2022/06/15 02:13:52;;;;;;;3.67;2.33;;;;;;;12.32;70.17;100422.88;4397179;32;33445;-88
2022/06/15 02:16:38;;;;;;;5.03;1.92;;;;;;;12.51;69.53;100431.50;4396207;32;34601;-88
2022/06/15 02:19:11;;;;;;;3.55;2.25;;;;;;;12.18;70.59;100429.09;4414706;32;33990;-88
2022/06/15 02:21:41;;;;;;;3.97;2.08;;;;;;;12.31;70.27;100418.47;4397254;32;34071;-87
2022/06/15 02:24:11;;;;;;;4.40;2.00;;;;;;;12.38;69.69;100422.25;4385619;32;32900;-88
2022/06/15 02:26:39;;;;;;;4.15;2.05;;;;;;;12.43;69.10;100417.28;4393531;32;31984;-88
2022/06/15 02:29:17;;;;;;;5.80;1.85;;;;;;;12.29;69.51;100414.91;4392967;32;32739;-88
2022/06/15 02:31:45;;;;;;;6.22;2.10;;;;;;;12.31;69.21;100422.78;4409041;32;34722;-87
2022/06/15 02:34:13;;;;;;;10.65;2.17;;;;;;;12.44;68.70;100421.66;4397928;32;33612;-88
2022/06/15 02:36:42;;;;;;;5.62;2.42;;;;;;;12.32;68.73;100424.56;4396794;32;33640;-89
2022/06/15 02:39:11;;;;;;;4.53;1.60;;;;;;;12.34;68.76;100421.22;4394814;32;37079;-88
2022/06/15 02:41:38;;;;;;;5.35;1.98;;;;;;;12.20;68.56;100415.34;4393570;32;32723;-87
2022/06/15 02:44:09;;;;;;;3.17;1.90;;;;;;;12.13;68.48;100413.31;4389124;32;33538;-87
2022/06/15 02:46:40;;;;;;;5.90;1.98;;;;;;;12.02;69.42;100414.47;4394969;32;32092;-87
2022/06/15 02:49:07;;;;;;;5.25;1.83;;;;;;;11.89;69.88;100417.25;4392086;32;33433;-88
2022/06/15 02:52:07;;;;;;;5.82;2.05;;;;;;;11.74;70.73;100419.97;4395082;32;34075;-88
2022/06/15 02:54:46;;;;;;;5.80;2.28;;;;;;;11.61;71.15;100421.97;4360534;32;33654;-88
2022/06/15 02:57:14;;;;;;;3.35;2.03;;;;;;;11.75;70.79;100424.38;4400229;32;34563;-87
2022/06/15 02:59:45;;;;;;;4.07;2.20;;;;;;;11.93;69.93;100427.00;4387562;32;32846;-88
2022/06/15 03:02:14;;;;;;;4.35;2.05;;;;;;;12.21;68.55;100421.47;4398571;32;33485;-88
2022/06/15 03:04:47;;;;;;;5.12;2.00;;;;;;;11.88;69.07;100426.75;4388068;32;31397;-88
2022/06/15 03:07:15;;;;;;;3.90;1.62;;;;;;;12.19;67.92;100428.28;4395152;32;32958;-86
2022/06/15 03:09:43;;;;;;;2.87;1.58;;;;;;;12.34;67.44;100423.84;4405116;32;32877;-85
2022/06/15 03:12:11;;;;;;;4.65;1.80;;;;;;;12.24;67.12;100431.97;4414028;32;33687;-87
2022/06/15 03:14:39;;;;;;;5.65;2.37;;;;;;;12.26;67.62;100432.06;4405340;32;33484;-87
2022/06/15 03:17:08;;;;;;;4.45;1.83;;;;;;;12.20;68.82;100430.94;4396721;32;34309;-87
2022/06/15 03:19:37;;;;;;;4.65;2.20;;;;;;;12.27;68.67;100432.12;4393702;32;34025;-86
2022/06/15 03:22:04;;;;;;;7.82;1.70;;;;;;;12.30;68.39;100432.25;4408894;32;34159;-87
2022/06/15 03:24:33;;;;;;;4.97;2.30;;;;;;;12.28;68.40;100439.09;4389906;32;32605;-87
2022/06/15 03:27:01;;;;;;;5.50;2.40;;;;;;;12.25;68.78;100433.78;4391787;32;34798;-87
2022/06/15 03:29:30;;;;;;;5.55;2.03;;;;;;;12.44;68.62;100434.63;4386610;32;32022;-87
2022/06/15 03:31:59;;;;;;;4.78;2.10;;;;;;;12.68;67.97;100440.09;4404134;32;34170;-86
2022/06/15 03:34:27;;;;;;;4.07;2.20;;;;;;;13.27;66.23;100436.72;4384571;32;31739;-86
2022/06/15 03:36:54;;;;;;;3.45;1.90;;;;;;;12.67;67.92;100434.03;4402206;32;33558;-86
2022/06/15 03:39:23;;;;;;;3.70;2.22;;;;;;;13.11;66.94;100436.84;4387739;32;32153;-87
2022/06/15 03:41:55;;;;;;;5.53;2.20;;;;;;;13.60;65.63;100435.53;4395777;32;34751;-87
2022/06/15 03:44:23;;;;;;;6.37;2.33;;;;;;;14.12;63.38;100429.91;4372829;32;31972;-86
2022/06/15 03:46:52;;;;;;;4.68;2.17;;;;;;;14.08;63.80;100427.97;4396783;32;31909;-86
2022/06/15 03:49:21;;;;;;;3.87;1.92;;;;;;;12.99;66.04;100439.78;4397612;32;32389;-87
2022/06/15 03:51:49;;;;;;;3.92;1.98;;;;;;;12.57;66.90;100431.78;4403981;32;33546;-86
2022/06/15 03:54:18;;;;;;;6.10;2.42;;;;;;;12.72;67.57;100434.22;4390141;32;33229;-86
2022/06/15 03:56:48;;;;;;;5.30;2.00;;;;;;;12.60;68.52;100437.16;4384532;32;33649;-86
2022/06/15 03:59:16;;;;;;;4.20;2.17;;;;;;;12.62;68.44;100438.13;4399542;32;33561;-87
2022/06/15 04:01:45;;;;;;;5.65;2.05;;;;;;;12.75;67.57;100443.06;4384012;32;34240;-86
2022/06/15 04:04:13;;;;;;;7.68;2.45;;;;;;;12.71;67.96;100441.16;4399260;32;33591;-86
2022/06/15 04:06:41;;;;;;;4.55;2.12;;;;;;;12.96;66.96;100435.34;4405490;32;33900;-87
2022/06/15 04:09:09;;;;;;;5.57;2.00;;;;;;;12.99;67.12;100437.19;4393944;32;32541;-86
2022/06/15 04:14:33;;;;;;;8.32;2.47;;;;;;;13.11;67.12;100440.34;4406627;32;34258;-87
2022/06/15 04:17:03;;;;;;;6.43;2.28;;;;;;;13.12;66.96;100443.84;4389416;32;32580;-86
2022/06/15 04:19:34;;;;;;;3.42;1.67;;;;;;;13.12;67.01;100441.25;4391764;32;33714;-87
2022/06/15 04:22:02;;;;;;;4.70;2.10;;;;;;;13.33;66.30;100446.56;4387490;32;32581;-87
2022/06/15 04:24:31;;;;;;;5.90;2.20;;;;;;;13.42;66.28;100444.31;4393463;32;32877;-87
2022/06/15 04:26:59;;;;;;;4.57;1.90;;;;;;;14.31;63.42;100441.94;4395439;32;33896;-87
2022/06/15 04:29:27;;;;;;;5.07;1.60;;;;;;;13.67;65.97;100445.38;4390559;32;32544;-86
2022/06/15 04:31:55;;;;;;;3.50;1.60;;;;;;;13.65;66.05;100444.44;4411641;32;34709;-87
2022/06/15 04:34:25;;;;;;;4.25;2.05;;;;;;;13.96;65.56;100449.22;4401722;32;34431;-86
2022/06/15 04:36:52;;;;;;;4.47;1.87;;;;;;;13.91;65.68;100449.03;4393010;32;32340;-87
2022/06/15 04:39:21;;;;;;;4.78;2.03;;;;;;;13.96;65.38;100450.13;4388620;32;32463;-87
2022/06/15 04:41:48;;;;;;;5.93;2.05;;;;;;;14.02;65.30;100448.56;4394456;32;34841;-87
2022/06/15 04:44:18;;;;;;;4.03;1.85;;;;;;;14.21;64.64;100445.88;4390624;32;33242;-87
2022/06/15 04:46:47;;;;;;;4.43;1.90;;;;;;;14.01;65.28;100446.81;4393595;32;33866;-87
2022/06/15 04:49:16;;;;;;;4.60;1.80;;;;;;;14.41;64.44;100444.09;4413670;32;34030;-87
2022/06/15 04:51:44;;;;;;;4.03;2.30;;;;;;;14.29;64.79;100444.50;4407381;32;34405;-88
2022/06/15 04:54:12;;;;;;;4.78;1.98;;;;;;;14.48;64.56;100450.44;4407897;32;33196;-87
2022/06/15 04:56:40;;;;;;;4.22;1.92;;;;;;;14.67;64.35;100450.34;4392618;32;34010;-88
2022/06/15 04:59:08;;;;;;;4.22;1.85;;;;;;;14.62;64.40;100453.59;4381242;32;33545;-88
2022/06/15 05:01:37;;;;;;;5.60;2.10;;;;;;;14.86;63.62;100453.66;4379046;32;34597;-88
2022/06/15 05:04:05;;;;;;;4.43;2.30;;;;;;;14.80;64.05;100448.22;4410325;32;33389;-88
2022/06/15 05:06:36;;;;;;;6.47;2.37;;;;;;;15.00;63.77;100457.69;4391593;32;34253;-87
2022/06/15 05:09:28;;;;;;;4.00;2.15;;;;;;;15.08;63.91;100453.63;4393941;32;33102;-89
2022/06/15 05:12:10;;;;;;;5.93;2.22;;;;;;;15.47;63.58;100461.16;4404939;32;33066;-89
2022/06/15 05:14:52;;;;;;;4.07;1.70;;;;;;;15.50;62.91;100456.00;4375253;32;32193;-89
2022/06/15 05:17:22;;;;;;;3.83;2.00;;;;;;;15.65;61.60;100449.56;4379005;32;33189;-88
2022/06/15 05:19:52;;;;;;;6.07;2.10;;;;;;;16.07;61.18;100449.25;4393972;32;32474;-88
2022/06/15 05:22:20;;;;;;;4.22;2.00;;;;;;;16.03;62.15;100444.75;4395305;32;33157;-88
2022/06/15 05:24:48;;;;;;;6.75;1.90;;;;;;;16.18;61.64;100447.88;4378794;32;32300;-89
2022/06/15 05:27:16;;;;;;;5.65;2.00;;;;;;;16.28;60.15;100449.97;4390880;32;32979;-90
2022/06/15 05:30:10;;;;;;;4.78;1.75;;;;;;;16.49;58.91;100454.09;4385392;32;32906;-88
2022/06/15 05:32:39;;;;;;;4.10;1.85;;;;;;;16.77;58.95;100454.94;4390345;32;32513;-86
2022/06/15 05:35:08;;;;;;;6.68;2.20;;;;;;;17.13;58.20;100449.03;4416345;32;33559;-87
2022/06/15 05:37:36;;;;;;;4.35;2.12;;;;;;;16.94;59.06;100452.84;4398501;32;33845;-87
2022/06/15 05:40:05;;;;;;;4.97;2.12;;;;;;;17.17;58.35;100456.12;4388452;32;32677;-87
2022/06/15 05:42:35;;;;;;;4.80;1.98;;;;;;;17.48;57.08;100450.91;4382106;32;33579;-88
2022/06/15 05:45:05;;;;;;;3.90;1.80;;;;;;;17.43;55.74;100460.37;4390612;32;31514;-88
2022/06/15 05:47:32;;;;;;;5.15;2.20;;;;;;;18.49;54.23;100449.09;4396531;32;34535;-88
2022/06/15 05:50:00;;;;;;;3.95;2.00;;;;;;;18.02;55.17;100451.44;4398515;32;33910;-88
2022/06/15 05:52:28;;;;;;;5.07;1.65;;;;;;;18.34;54.58;100454.84;4414538;32;33387;-88
2022/06/15 05:55:01;;;;;;;3.42;1.50;;;;;;;19.05;54.14;100459.09;4416865;32;33894;-89
2022/06/15 05:57:29;;;;;;;6.97;1.58;;;;;;;19.48;52.50;100464.31;4406894;32;33282;-88
2022/06/15 05:59:57;;;;;;;4.75;1.60;;;;;;;19.78;51.02;100462.28;4389095;32;32034;-88
2022/06/15 06:02:27;;;;;;;3.53;1.42;;;;;;;19.61;50.24;100448.81;4398916;32;32593;-88
2022/06/15 06:04:54;;;;;;;3.22;1.23;;;;;;;19.77;49.84;100455.25;4391294;32;33646;-88
2022/06/15 06:07:22;;;;;;;6.60;1.70;;;;;;;20.03;48.32;100457.47;4404584;32;33847;-88
2022/06/15 06:09:50;;;;;;;3.87;1.35;;;;;;;20.53;46.91;100449.47;4399293;32;33709;-89
2022/06/15 06:12:18;;;;;;;7.20;1.70;;;;;;;20.35;47.78;100454.44;4405407;32;34889;-89
2022/06/15 06:14:46;;;;;;;3.35;1.42;;;;;;;20.45;45.73;100455.47;4398115;32;33274;-88
2022/06/15 06:17:14;;;;;;;4.90;1.35;;;;;;;20.17;44.73;100460.31;4402267;32;33682;-88
2022/06/15 06:19:42;;;;;;;3.15;1.30;;;;;;;20.91;43.45;100467.56;4410793;32;33796;-88
2022/06/15 06:22:17;;;;;;;5.20;1.40;;;;;;;21.10;43.12;100468.69;4400111;32;34477;-87
2022/06/15 06:24:49;;;;;;;4.35;1.50;;;;;;;21.17;42.54;100469.62;4398782;32;33320;-88
2022/06/15 06:27:17;;;;;;;3.70;1.45;;;;;;;21.12;43.01;100463.44;4399329;32;33822;-89
2022/06/15 06:29:44;;;;;;;2.53;1.25;;;;;;;20.76;42.88;100468.22;4401387;32;33143;-88
2022/06/15 06:32:14;;;;;;;4.18;1.52;;;;;;;21.07;42.78;100463.38;4419895;32;33804;-89
2022/06/15 06:34:42;;;;;;;5.30;1.60;;;;;;;21.77;40.94;100458.03;4390983;32;33213;-88
2022/06/15 06:37:12;;;;;;;4.35;1.50;;;;;;;21.10;42.78;100457.28;4397740;32;31860;-88
2022/06/15 06:39:40;;;;;;;5.07;1.80;;;;;;;21.72;41.21;100457.09;4400639;32;33625;-88
2022/06/15 06:42:09;;;;;;;4.20;1.52;;;;;;;21.80;41.04;100463.34;4397173;32;33905;-88
2022/06/15 06:44:37;;;;;;;4.22;1.60;;;;;;;21.93;41.17;100466.09;4393134;32;33223;-88
2022/06/15 06:47:07;;;;;;;4.03;1.40;;;;;;;22.15;40.67;100460.13;4401523;32;33574;-88
2022/06/15 06:49:36;;;;;;;3.67;1.50;;;;;;;22.50;39.04;100462.19;4400154;32;33992;-89
2022/06/15 06:52:14;;;;;;;3.95;1.40;;;;;;;22.15;39.08;100468.03;4412619;32;34145;-88
2022/06/15 06:54:42;;;;;;;4.43;1.48;;;;;;;22.32;39.26;100462.06;4388934;32;31962;-93
2022/06/15 06:57:10;;;;;;;2.55;1.27;;;;;;;22.73;38.43;100464.06;4384464;32;32101;-87
2022/06/15 06:59:38;;;;;;;3.45;1.48;;;;;;;23.01;37.78;100470.38;4407047;32;33558;-87
2022/06/15 07:02:06;;;;;;;3.85;1.40;;;;;;;22.60;38.45;100472.78;4405003;32;34804;-88
2022/06/15 07:04:34;;;;;;;2.85;1.50;;;;;;;22.94;37.53;100461.53;4394652;32;31957;-90
2022/06/15 07:07:01;;;;;;;5.80;1.40;;;;;;;22.92;37.40;100471.22;4392068;32;33172;-92
2022/06/15 07:09:30;;;;;;;5.35;1.73;;;;;;;22.64;38.33;100471.94;4386370;32;33010;-92
2022/06/15 07:11:57;;;;;;;4.20;1.70;;;;;;;23.00;37.91;100465.09;4383136;32;33121;-90
2022/06/15 07:14:25;;;;;;;5.72;1.75;;;;;;;23.08;37.06;100473.97;4374981;32;32168;-90
2022/06/15 07:16:52;;;;;;;5.90;1.87;;;;;;;23.11;37.47;100472.22;4402849;32;34001;-91
2022/06/15 07:19:20;;;;;;;4.20;1.52;;;;;;;22.64;38.59;100471.94;4369565;32;33075;-90
2022/06/15 07:21:48;;;;;;;6.75;1.42;;;;;;;23.10;37.95;100482.78;4389083;32;33772;-91
2022/06/15 07:24:15;;;;;;;4.80;1.70;;;;;;;23.22;37.45;100474.91;4380468;32;31970;-92
2022/06/15 07:26:47;;;;;;;4.53;1.48;;;;;;;23.56;37.19;100475.00;4379628;32;32564;-92
2022/06/15 07:29:17;;;;;;;4.82;1.48;;;;;;;23.59;36.66;100467.09;4384066;32;32798;-90
2022/06/15 07:31:50;;;;;;;4.03;1.40;;;;;;;23.65;36.42;100463.59;4400544;32;33530;-90
2022/06/15 07:34:18;;;;;;;7.45;1.65;;;;;;;24.11;35.78;100459.25;4389659;32;32233;-91
2022/06/15 07:36:46;;;;;;;6.70;1.50;;;;;;;24.24;34.88;100461.88;4404912;32;32499;-92
2022/06/15 07:39:17;;;;;;;4.60;1.60;;;;;;;24.19;35.32;100466.31;4388698;32;32404;-90
2022/06/15 07:41:45;;;;;;;7.10;1.60;;;;;;;24.38;35.24;100467.16;4390493;32;32394;-90
2022/06/15 07:44:14;;;;;;;3.47;1.42;;;;;;;24.43;35.62;100466.25;4411952;32;33561;-92
2022/06/15 07:46:42;;;;;;;3.35;1.40;;;;;;;24.29;35.81;100468.06;4383763;32;33795;-91
2022/06/15 07:52:00;;;;;;;6.68;1.87;;;;;;;25.16;32.71;100460.81;4406792;32;33869;-92
2022/06/15 07:54:29;;;;;;;4.07;1.48;;;;;;;25.08;34.20;100460.84;4389593;32;33154;-92
2022/06/15 07:56:57;;;;;;;5.80;1.52;;;;;;;24.72;33.37;100462.72;4383977;32;32029;-92
2022/06/15 07:59:25;;;;;;;2.00;1.30;;;;;;;24.73;32.84;100457.41;4383691;32;33654;-91
2022/06/15 08:01:52;;;;;;;4.35;1.30;;;;;;;25.02;30.73;100455.56;4385247;32;32302;-92
2022/06/15 08:04:21;;;;;;;3.67;1.58;;;;;;;24.84;32.27;100457.41;4390399;32;33176;-92
2022/06/15 08:06:49;;;;;;;4.25;1.65;;;;;;;25.02;32.13;100455.56;4393052;32;32912;-93
2022/06/15 08:09:23;;;;;;;4.07;1.70;;;;;;;24.79;33.61;100453.87;4397627;32;33537;-90
2022/06/15 08:14:48;;;;;;;3.45;1.30;;;;;;;24.08;32.79;100446.00;4398078;32;33315;-90
2022/06/15 08:17:22;;;;;;;4.60;1.80;;;;;;;25.15;33.04;100456.38;4392578;32;33073;-96
2022/06/15 08:19:54;;;;;;;3.40;1.48;;;;;;;24.39;32.72;100448.62;4399677;32;32322;-93
2022/06/15 08:22:25;;;;;;;3.78;1.50;;;;;;;24.70;34.11;100451.25;4380433;32;32939;-94
2022/06/15 08:25:10;;;;;;;3.70;1.60;;;;;;;24.66;33.68;100452.12;4371876;32;32303;-90
2022/06/15 08:27:37;;;;;;;4.22;1.48;;;;;;;25.26;32.70;100455.47;4373716;32;31982;-89
2022/06/15 08:30:10;;;;;;;5.37;1.62;;;;;;;24.92;32.05;100449.41;4417136;32;33542;-90
2022/06/15 08:32:38;;;;;;;4.22;1.55;;;;;;;25.87;32.59;100448.03;4384538;32;32934;-90
2022/06/15 08:35:07;;;;;;;5.30;1.60;;;;;;;26.31;31.87;100448.56;4396590;32;34469;-92
2022/06/15 08:37:34;;;;;;;6.15;1.90;;;;;;;26.37;30.23;100453.84;4376905;32;33868;-91
2022/06/15 08:40:04;;;;;;;4.65;1.58;;;;;;;25.66;32.54;100449.94;4392678;32;34547;-91
2022/06/15 08:42:51;;;;;;;3.35;1.40;;;;;;;25.25;32.22;100448.41;4399436;32;33979;-91
2022/06/15 08:45:43;;;;;;;3.47;1.67;;;;;;;25.24;32.18;100451.94;4389097;32;33802;-88
2022/06/15 08:48:33;;;;;;;5.15;1.50;;;;;;;24.74;33.29;100450.34;4403929;32;32287;-88
2022/06/15 08:51:19;;;;;;;4.78;1.50;;;;;;;25.45;32.39;100445.62;4411649;32;33868;-88
2022/06/15 08:54:03;;;;;;;3.22;1.40;;;;;;;26.67;31.20;100447.34;4405919;32;34067;-89
2022/06/15 08:56:40;;;;;;;4.22;1.50;;;;;;;25.74;30.65;100443.69;4397853;32;33532;-89
2022/06/15 08:59:15;;;;;;;6.03;1.90;;;;;;;25.97;29.84;100441.78;4399092;32;33784;-88
2022/06/15 09:02:02;;;;;;;4.10;1.85;;;;;;;25.72;29.37;100442.84;4401029;32;33442;-90
2022/06/15 09:04:55;;;;;;;3.62;1.75;;;;;;;25.40;30.91;100435.94;4403003;32;34068;-92
2022/06/15 09:07:54;;;;;;;5.47;1.75;;;;;;;25.51;30.30;100435.00;4389847;32;31880;-92
2022/06/15 09:10:50;;;;;;;4.28;1.62;;;;;;;25.69;30.67;100444.63;4393842;32;33846;-91
2022/06/15 09:13:41;;;;;;;3.90;1.60;;;;;;;24.97;30.21;100446.75;4418674;32;33500;-92
2022/06/15 09:16:15;;;;;;;4.05;1.73;;;;;;;25.20;30.37;100444.00;4396833;32;32559;-89
2022/06/15 09:18:47;;;;;;;4.62;1.70;;;;;;;26.03;30.60;100433.75;4411773;32;34379;-90
2022/06/15 09:21:26;;;;;;;5.53;1.90;;;;;;;25.24;30.29;100436.03;4394905;32;32626;-90
2022/06/15 09:23:57;;;;;;;3.72;1.70;;;;;;;26.22;30.43;100431.81;4394002;32;33772;-90
2022/06/15 09:26:29;;;;;;;3.70;1.42;;;;;;;27.16;29.96;100428.13;4399039;32;33675;-89
2022/06/15 09:29:01;;;;;;;7.03;1.50;;;;;;;27.82;29.23;100426.31;4397762;32;33580;-90
2022/06/15 09:31:50;;;;;;;4.82;1.55;;;;;;;28.29;27.47;100421.97;4395546;32;33172;-91
2022/06/15 09:34:22;;;;;;;5.18;1.50;;;;;;;28.85;26.75;100428.94;4402141;32;34385;-91
2022/06/15 09:36:57;;;;;;;5.68;1.73;;;;;;;28.75;24.96;100426.44;4387958;32;32532;-90
2022/06/15 09:50:18;;;;;;;9.68;1.67;;;;;;;27.34;28.17;100423.50;4405318;32;35953;-89
2022/06/15 09:53:21;;;;;;;5.40;1.83;;;;;;;27.58;29.35;100411.59;4380022;32;33130;-89
2022/06/15 10:02:52;;;;;;;4.80;1.70;;;;;;;30.10;24.60;100405.63;4413966;32;33811;-90
2022/06/15 10:08:59;;;;;;;4.25;1.50;;;;;;;30.51;24.01;100406.34;4380346;32;34649;-90
2022/06/15 10:11:47;;;;;;;6.35;1.40;;;;;;;28.13;26.11;100399.19;4400769;32;33868;-92
2022/06/15 10:14:18;;;;;;;3.15;1.50;;;;;;;27.24;29.38;100386.37;4416268;32;34832;-91
2022/06/15 10:17:03;;;;;;;3.65;1.50;;;;;;;27.24;27.82;100385.47;4395873;32;32335;-94
2022/06/15 10:19:33;;;;;;;4.97;1.70;;;;;;;27.12;28.99;100386.53;4380462;32;34177;-88
2022/06/15 10:22:08;;;;;;;4.55;1.67;;;;;;;26.58;28.30;100388.94;4390930;32;33475;-92
2022/06/15 10:24:40;;;;;;;6.55;1.65;;;;;;;26.23;29.86;100395.50;4389831;32;33687;-91
2022/06/15 10:27:40;;;;;;;3.40;1.65;;;;;;;26.04;31.02;100397.50;4371117;32;32400;-92
2022/06/15 10:30:08;;;;;;;6.80;1.48;;;;;;;27.56;27.70;100386.78;4383155;32;34098;-91
2022/06/15 10:32:39;;;;;;;2.72;1.40;;;;;;;27.75;28.48;100387.38;4412644;32;33894;-92
2022/06/15 10:35:19;;;;;;;4.75;1.80;;;;;;;27.22;28.89;100385.50;4398600;32;34767;-90
2022/06/15 10:37:51;;;;;;;3.22;1.60;;;;;;;26.18;28.65;100382.28;4400180;32;32868;-93
2022/06/15 10:40:34;;;;;;;4.90;1.33;;;;;;;25.88;29.33;100386.06;4377077;32;33333;-89
2022/06/15 10:43:06;;;;;;;3.12;1.60;;;;;;;26.46;28.04;100385.56;4394706;32;34646;-93
2022/06/15 10:45:37;;;;;;;4.25;1.50;;;;;;;27.85;26.82;100381.00;4392729;32;34308;-90
2022/06/15 10:48:14;;;;;;;6.97;1.83;;;;;;;28.40;26.73;100374.69;4394049;32;33438;-89
2022/06/15 10:50:51;;;;;;;3.87;1.30;;;;;;;29.05;25.65;100367.16;4402446;32;32333;-89
2022/06/15 10:53:39;;;;;;;2.80;0.98;;;;;;;28.56;24.82;100369.97;4399788;32;32336;-91
2022/06/15 11:02:31;;;;;;;4.07;1.40;;;;;;;27.91;26.72;100356.97;4396688;32;32657;-90
2022/06/15 11:05:06;;;;;;;2.62;1.20;;;;;;;28.38;25.90;100363.19;4395575;32;34615;-90
2022/06/15 11:07:52;;;;;;;3.78;1.42;;;;;;;29.37;25.40;100351.31;4388279;32;32514;-92
2022/06/15 11:13:31;;;;;;;2.15;1.05;;;;;;;29.21;27.30;100345.47;4399308;32;35640;-91
2022/06/15 11:58:09;;;;;;;5.72;1.67;;;;;;;27.82;27.64;100325.16;4392213;32;201469;-86
2022/06/15 12:00:43;;;;;;;5.43;1.45;;;;;;;27.62;26.85;100323.72;4418668;32;34042;-88
2022/06/15 12:03:10;;;;;;;5.03;1.23;;;;;;;27.54;27.33;100320.28;4383651;32;34512;-87
2022/06/15 12:05:54;;;;;;;4.47;1.58;;;;;;;28.62;26.61;100313.00;4411822;32;31915;-87
2022/06/15 12:08:40;;;;;;;2.85;1.25;;;;;;;27.72;25.86;100312.88;4401080;32;33544;-89
2022/06/15 12:14:46;;;;;;;5.05;1.50;;;;;;;27.88;28.65;100309.09;4391299;32;32377;-90
2022/06/15 12:17:51;;;;;;;4.18;1.20;;;;;;;27.60;27.93;100309.56;4408180;32;32476;-88
2022/06/15 12:20:38;;;;;;;2.87;1.05;;;;;;;28.67;27.68;100304.91;4395450;32;32103;-89
2022/06/15 12:23:37;;;;;;;2.72;1.20;;;;;;;28.73;27.73;100304.78;4395418;32;32116;-89
2022/06/15 12:26:17;;;;;;;4.72;1.40;;;;;;;28.17;27.47;100305.00;4400835;32;32567;-89
2022/06/15 12:28:50;;;;;;;2.42;1.10;;;;;;;28.42;28.22;100300.94;4418619;32;33069;-89
2022/06/15 12:31:57;;;;;;;3.12;1.10;;;;;;;28.16;27.25;100297.91;4372659;32;32986;-88
2022/06/15 12:38:02;;;;;;;3.20;1.05;;;;;;;27.99;27.34;100296.47;4421999;32;35825;-88
2022/06/15 12:40:35;;;;;;;4.55;1.25;;;;;;;29.33;25.94;100295.41;4405400;32;32833;-90
2022/06/15 12:43:16;;;;;;;2.15;0.95;;;;;;;28.47;25.88;100295.50;4398330;32;33288;-86
2022/06/15 12:45:50;;;;;;;3.78;1.25;;;;;;;28.03;26.00;100287.50;4379365;32;34921;-89
2022/06/15 12:48:27;;;;;;;3.87;1.20;;;;;;;27.94;27.65;100293.00;4393998;32;32700;-90
2022/06/15 12:51:11;;;;;;;2.78;1.10;;;;;;;28.13;27.16;100284.69;4378694;32;32111;-89
2022/06/15 12:53:43;;;;;;;3.45;1.20;;;;;;;29.18;27.72;100276.19;4397395;32;34657;-87
2022/06/15 12:56:17;;;;;;;2.92;1.10;;;;;;;29.13;25.68;100278.09;4378555;32;32573;-90
2022/06/15 12:59:11;;;;;;;2.17;0.98;;;;;;;28.10;26.91;100272.28;4365125;32;33051;-89
2022/06/15 13:01:45;;;;;;;2.92;1.35;;;;;;;28.56;26.52;100276.69;4397001;32;33744;-90
2022/06/15 13:04:39;;;;;;;3.17;1.10;;;;;;;28.48;26.11;100278.63;4380340;32;35363;-89
2022/06/15 13:07:28;;;;;;;2.42;0.88;;;;;;;29.49;25.81;100275.41;4378955;32;33669;-91
2022/06/15 13:10:06;;;;;;;3.28;1.17;;;;;;;28.76;28.57;100278.03;4390733;32;33863;-90
2022/06/15 13:12:35;;;;;;;3.58;1.20;;;;;;;29.52;25.85;100270.00;4377218;32;32092;-88
2022/06/15 13:15:03;;;;;;;3.17;1.15;;;;;;;30.18;24.04;100280.72;4407132;32;34269;-89
2022/06/15 13:18:14;;;;;;;3.33;1.05;;;;;;;29.72;23.97;100272.16;4381889;32;34026;-90
2022/06/15 13:20:45;;;;;;;2.75;1.30;;;;;;;27.60;27.88;100269.66;4370085;32;33214;-89
2022/06/15 13:23:26;;;;;;;2.85;1.05;;;;;;;27.16;27.59;100268.59;4393737;32;32412;-89